sensor_id;sensor_type;location;lat;lon;timestamp;P1;durP1;ratioP1;P2;durP2;ratioP2
3211;SDS011;1618;47.056;15.472;2023-11-22T00:02:03;17.60;;;16.80;;
3211;SDS011;1618;47.056;15.472;2023-11-22T00:04:31;18.13;;;17.33;;
3211;SDS011;1618;47.056;15.472;2023-11-22T00:06:58;17.60;;;16.80;;
3211;SDS011;1618;47.056;15.472;2023-11-22T00:09:28;18.30;;;17.50;;
3211;SDS011;1618;47.056;15.472;2023-11-22T00:11:56;18.00;;;17.20;;
3211;SDS011;1618;47.056;15.472;2023-11-22T00:14:26;19.10;;;18.20;;
3211;SDS011;1618;47.056;15.472;2023-11-22T00:16:58;18.30;;;17.50;;
3211;SDS011;1618;47.056;15.472;2023-11-22T00:19:31;17.97;;;17.17;;
3211;SDS011;1618;47.056;15.472;2023-11-22T00:22:01;17.50;;;16.70;;
3211;SDS011;1618;47.056;15.472;2023-11-22T00:24:40;18.10;;;17.30;;
3211;SDS011;1618;47.056;15.472;2023-11-22T00:27:07;18.13;;;17.33;;
3211;SDS011;1618;47.056;15.472;2023-11-22T00:29:35;18.53;;;17.73;;
3211;SDS011;1618;47.056;15.472;2023-11-22T00:32:03;19.10;;;18.20;;
3211;SDS011;1618;47.056;15.472;2023-11-22T00:34:33;18.50;;;17.70;;
3211;SDS011;1618;47.056;15.472;2023-11-22T00:37:02;19.13;;;18.23;;
3211;SDS011;1618;47.056;15.472;2023-11-22T00:39:31;18.87;;;17.97;;
3211;SDS011;1618;47.056;15.472;2023-11-22T00:41:59;19.60;;;18.70;;
3211;SDS011;1618;47.056;15.472;2023-11-22T00:44:30;18.97;;;18.07;;
3211;SDS011;1618;47.056;15.472;2023-11-22T00:46:58;19.30;;;18.40;;
3211;SDS011;1618;47.056;15.472;2023-11-22T00:49:25;18.90;;;18.00;;
3211;SDS011;1618;47.056;15.472;2023-11-22T00:51:52;20.50;;;19.50;;
3211;SDS011;1618;47.056;15.472;2023-11-22T00:54:21;20.13;;;19.13;;
3211;SDS011;1618;47.056;15.472;2023-11-22T00:56:48;20.60;;;19.60;;
3211;SDS011;1618;47.056;15.472;2023-11-22T00:59:17;20.30;;;19.40;;
3211;SDS011;1618;47.056;15.472;2023-11-22T01:01:46;20.10;;;19.20;;
3211;SDS011;1618;47.056;15.472;2023-11-22T01:04:13;19.60;;;18.70;;
3211;SDS011;1618;47.056;15.472;2023-11-22T01:06:42;20.07;;;19.17;;
3211;SDS011;1618;47.056;15.472;2023-11-22T01:09:09;20.40;;;19.47;;
3211;SDS011;1618;47.056;15.472;2023-11-22T01:11:39;20.73;;;19.73;;
3211;SDS011;1618;47.056;15.472;2023-11-22T01:14:08;19.80;;;18.90;;
3211;SDS011;1618;47.056;15.472;2023-11-22T01:16:37;19.90;;;19.00;;
3211;SDS011;1618;47.056;15.472;2023-11-22T01:19:06;21.30;;;20.30;;
3211;SDS011;1618;47.056;15.472;2023-11-22T01:21:34;21.50;;;20.50;;
3211;SDS011;1618;47.056;15.472;2023-11-22T01:24:01;20.90;;;19.93;;
3211;SDS011;1618;47.056;15.472;2023-11-22T01:26:28;21.07;;;20.07;;
3211;SDS011;1618;47.056;15.472;2023-11-22T01:28:58;21.07;;;20.10;;
3211;SDS011;1618;47.056;15.472;2023-11-22T01:31:28;20.43;;;19.53;;
3211;SDS011;1618;47.056;15.472;2023-11-22T01:34:00;20.70;;;19.80;;
3211;SDS011;1618;47.056;15.472;2023-11-22T01:36:29;20.43;;;19.43;;
3211;SDS011;1618;47.056;15.472;2023-11-22T01:38:56;19.50;;;18.60;;
3211;SDS011;1618;47.056;15.472;2023-11-22T01:41:25;20.10;;;19.20;;
3211;SDS011;1618;47.056;15.472;2023-11-22T01:43:55;20.33;;;19.43;;
3211;SDS011;1618;47.056;15.472;2023-11-22T01:46:24;19.20;;;18.40;;
3211;SDS011;1618;47.056;15.472;2023-11-22T01:48:52;20.53;;;19.63;;
3211;SDS011;1618;47.056;15.472;2023-11-22T01:51:22;21.20;;;20.30;;
3211;SDS011;1618;47.056;15.472;2023-11-22T01:53:50;19.80;;;18.90;;
3211;SDS011;1618;47.056;15.472;2023-11-22T01:56:20;20.93;;;19.93;;
3211;SDS011;1618;47.056;15.472;2023-11-22T01:58:48;19.80;;;18.90;;
3211;SDS011;1618;47.056;15.472;2023-11-22T02:01:16;21.07;;;20.07;;
3211;SDS011;1618;47.056;15.472;2023-11-22T02:03:45;20.20;;;19.30;;
3211;SDS011;1618;47.056;15.472;2023-11-22T02:06:14;20.07;;;19.17;;
3211;SDS011;1618;47.056;15.472;2023-11-22T02:08:43;21.30;;;20.30;;
3211;SDS011;1618;47.056;15.472;2023-11-22T02:11:12;21.87;;;20.87;;
3211;SDS011;1618;47.056;15.472;2023-11-22T02:13:41;22.07;;;21.07;;
3211;SDS011;1618;47.056;15.472;2023-11-22T02:16:09;21.10;;;20.10;;
3211;SDS011;1618;47.056;15.472;2023-11-22T02:18:36;20.20;;;19.30;;
3211;SDS011;1618;47.056;15.472;2023-11-22T02:21:04;21.40;;;20.40;;
3211;SDS011;1618;47.056;15.472;2023-11-22T02:23:34;22.03;;;21.03;;
3211;SDS011;1618;47.056;15.472;2023-11-22T02:26:03;21.10;;;20.10;;
3211;SDS011;1618;47.056;15.472;2023-11-22T02:28:31;21.10;;;20.10;;
3211;SDS011;1618;47.056;15.472;2023-11-22T02:30:59;21.60;;;20.60;;
3211;SDS011;1618;47.056;15.472;2023-11-22T02:33:27;21.20;;;20.20;;
3211;SDS011;1618;47.056;15.472;2023-11-22T02:35:56;21.40;;;20.40;;
3211;SDS011;1618;47.056;15.472;2023-11-22T02:38:25;20.93;;;19.93;;
3211;SDS011;1618;47.056;15.472;2023-11-22T02:40:54;21.07;;;20.07;;
3211;SDS011;1618;47.056;15.472;2023-11-22T02:43:22;21.10;;;20.10;;
3211;SDS011;1618;47.056;15.472;2023-11-22T02:45:50;21.37;;;20.37;;
3211;SDS011;1618;47.056;15.472;2023-11-22T02:48:17;21.90;;;20.90;;
3211;SDS011;1618;47.056;15.472;2023-11-22T02:50:45;20.83;;;19.83;;
3211;SDS011;1618;47.056;15.472;2023-11-22T02:53:15;19.63;;;18.73;;
3211;SDS011;1618;47.056;15.472;2023-11-22T02:55:42;20.83;;;19.90;;
3211;SDS011;1618;47.056;15.472;2023-11-22T02:58:12;21.10;;;20.10;;
3211;SDS011;1618;47.056;15.472;2023-11-22T03:00:41;21.20;;;20.20;;
3211;SDS011;1618;47.056;15.472;2023-11-22T03:03:09;21.53;;;20.53;;
3211;SDS011;1618;47.056;15.472;2023-11-22T03:05:43;21.47;;;20.47;;
3211;SDS011;1618;47.056;15.472;2023-11-22T03:08:11;21.53;;;20.53;;
3211;SDS011;1618;47.056;15.472;2023-11-22T03:10:40;21.27;;;20.27;;
3211;SDS011;1618;47.056;15.472;2023-11-22T03:13:10;21.40;;;20.40;;
3211;SDS011;1618;47.056;15.472;2023-11-22T03:15:39;21.73;;;20.73;;
3211;SDS011;1618;47.056;15.472;2023-11-22T03:18:08;21.90;;;20.90;;
3211;SDS011;1618;47.056;15.472;2023-11-22T03:20:37;22.47;;;21.47;;
3211;SDS011;1618;47.056;15.472;2023-11-22T03:23:08;22.60;;;21.50;;
3211;SDS011;1618;47.056;15.472;2023-11-22T03:25:36;21.97;;;20.97;;
3211;SDS011;1618;47.056;15.472;2023-11-22T03:28:04;22.03;;;21.03;;
3211;SDS011;1618;47.056;15.472;2023-11-22T03:30:32;21.70;;;20.70;;
3211;SDS011;1618;47.056;15.472;2023-11-22T03:33:01;20.17;;;19.27;;
3211;SDS011;1618;47.056;15.472;2023-11-22T03:35:28;21.40;;;20.50;;
3211;SDS011;1618;47.056;15.472;2023-11-22T03:37:57;21.37;;;20.47;;
3211;SDS011;1618;47.056;15.472;2023-11-22T03:40:24;20.50;;;19.60;;
3211;SDS011;1618;47.056;15.472;2023-11-22T03:42:53;20.57;;;19.67;;
3211;SDS011;1618;47.056;15.472;2023-11-22T03:45:21;20.57;;;19.67;;
3211;SDS011;1618;47.056;15.472;2023-11-22T03:47:51;21.83;;;20.83;;
3211;SDS011;1618;47.056;15.472;2023-11-22T03:50:20;22.10;;;21.10;;
3211;SDS011;1618;47.056;15.472;2023-11-22T03:52:48;21.67;;;20.67;;
3211;SDS011;1618;47.056;15.472;2023-11-22T03:55:16;22.53;;;21.53;;
3211;SDS011;1618;47.056;15.472;2023-11-22T03:57:43;22.07;;;21.07;;
3211;SDS011;1618;47.056;15.472;2023-11-22T04:00:11;21.60;;;20.60;;
3211;SDS011;1618;47.056;15.472;2023-11-22T04:02:39;21.80;;;20.80;;
3211;SDS011;1618;47.056;15.472;2023-11-22T04:05:07;20.37;;;19.47;;
3211;SDS011;1618;47.056;15.472;2023-11-22T04:07:37;20.97;;;20.07;;
3211;SDS011;1618;47.056;15.472;2023-11-22T04:10:06;20.40;;;19.50;;
3211;SDS011;1618;47.056;15.472;2023-11-22T04:12:35;20.07;;;19.17;;
3211;SDS011;1618;47.056;15.472;2023-11-22T04:15:03;20.90;;;20.00;;
3211;SDS011;1618;47.056;15.472;2023-11-22T04:17:35;19.07;;;18.27;;
3211;SDS011;1618;47.056;15.472;2023-11-22T04:20:04;20.90;;;20.00;;
3211;SDS011;1618;47.056;15.472;2023-11-22T04:22:38;20.90;;;20.00;;
3211;SDS011;1618;47.056;15.472;2023-11-22T04:25:05;20.23;;;19.33;;
3211;SDS011;1618;47.056;15.472;2023-11-22T04:27:33;20.67;;;19.77;;
3211;SDS011;1618;47.056;15.472;2023-11-22T04:30:00;20.87;;;19.97;;
3211;SDS011;1618;47.056;15.472;2023-11-22T04:32:28;21.57;;;20.57;;
3211;SDS011;1618;47.056;15.472;2023-11-22T04:34:55;22.23;;;21.27;;
3211;SDS011;1618;47.056;15.472;2023-11-22T04:37:23;22.60;;;21.60;;
3211;SDS011;1618;47.056;15.472;2023-11-22T04:39:54;22.17;;;21.20;;
3211;SDS011;1618;47.056;15.472;2023-11-22T04:42:22;22.40;;;21.40;;
3211;SDS011;1618;47.056;15.472;2023-11-22T04:44:49;21.87;;;20.97;;
3211;SDS011;1618;47.056;15.472;2023-11-22T04:47:17;22.63;;;21.63;;
3211;SDS011;1618;47.056;15.472;2023-11-22T04:49:45;24.07;;;22.97;;
3211;SDS011;1618;47.056;15.472;2023-11-22T04:52:12;20.43;;;19.53;;
3211;SDS011;1618;47.056;15.472;2023-11-22T04:54:40;21.60;;;20.60;;
3211;SDS011;1618;47.056;15.472;2023-11-22T04:57:08;21.60;;;20.70;;
3211;SDS011;1618;47.056;15.472;2023-11-22T04:59:38;22.67;;;21.67;;
3211;SDS011;1618;47.056;15.472;2023-11-22T05:02:05;23.30;;;22.30;;
3211;SDS011;1618;47.056;15.472;2023-11-22T05:04:35;22.17;;;21.17;;
3211;SDS011;1618;47.056;15.472;2023-11-22T05:07:04;22.77;;;21.77;;
3211;SDS011;1618;47.056;15.472;2023-11-22T05:09:32;21.60;;;20.60;;
3211;SDS011;1618;47.056;15.472;2023-11-22T05:12:00;22.43;;;21.43;;
3211;SDS011;1618;47.056;15.472;2023-11-22T05:14:30;24.10;;;23.00;;
3211;SDS011;1618;47.056;15.472;2023-11-22T05:16:58;22.90;;;21.90;;
3211;SDS011;1618;47.056;15.472;2023-11-22T05:19:26;22.40;;;21.40;;
3211;SDS011;1618;47.056;15.472;2023-11-22T05:21:53;23.47;;;22.47;;
3211;SDS011;1618;47.056;15.472;2023-11-22T05:24:21;23.90;;;22.90;;
3211;SDS011;1618;47.056;15.472;2023-11-22T05:26:49;23.50;;;22.50;;
3211;SDS011;1618;47.056;15.472;2023-11-22T05:29:16;24.50;;;23.40;;
3211;SDS011;1618;47.056;15.472;2023-11-22T05:31:46;24.77;;;23.67;;
3211;SDS011;1618;47.056;15.472;2023-11-22T05:34:14;23.57;;;22.57;;
3211;SDS011;1618;47.056;15.472;2023-11-22T05:36:42;23.13;;;22.13;;
3211;SDS011;1618;47.056;15.472;2023-11-22T05:39:09;22.90;;;21.90;;
3211;SDS011;1618;47.056;15.472;2023-11-22T05:41:37;22.23;;;21.23;;
3211;SDS011;1618;47.056;15.472;2023-11-22T05:44:05;21.77;;;20.87;;
3211;SDS011;1618;47.056;15.472;2023-11-22T05:46:33;22.00;;;21.00;;
3211;SDS011;1618;47.056;15.472;2023-11-22T05:49:02;21.90;;;20.90;;
3211;SDS011;1618;47.056;15.472;2023-11-22T05:51:30;21.70;;;20.70;;
3211;SDS011;1618;47.056;15.472;2023-11-22T05:53:57;23.30;;;22.30;;
3211;SDS011;1618;47.056;15.472;2023-11-22T05:56:25;26.00;;;24.90;;
3211;SDS011;1618;47.056;15.472;2023-11-22T05:58:54;27.63;;;26.43;;
3211;SDS011;1618;47.056;15.472;2023-11-22T06:01:21;26.37;;;25.27;;
3211;SDS011;1618;47.056;15.472;2023-11-22T06:03:54;23.37;;;22.37;;
3211;SDS011;1618;47.056;15.472;2023-11-22T06:06:22;21.50;;;20.60;;
3211;SDS011;1618;47.056;15.472;2023-11-22T06:08:51;22.90;;;21.90;;
3211;SDS011;1618;47.056;15.472;2023-11-22T06:11:19;22.47;;;21.57;;
3211;SDS011;1618;47.056;15.472;2023-11-22T06:13:46;20.57;;;19.77;;
3211;SDS011;1618;47.056;15.472;2023-11-22T06:16:13;21.20;;;20.30;;
3211;SDS011;1618;47.056;15.472;2023-11-22T06:18:40;23.00;;;22.00;;
3211;SDS011;1618;47.056;15.472;2023-11-22T06:21:09;19.40;;;18.60;;
3211;SDS011;1618;47.056;15.472;2023-11-22T06:23:38;21.60;;;20.70;;
3211;SDS011;1618;47.056;15.472;2023-11-22T06:26:06;19.20;;;18.40;;
3211;SDS011;1618;47.056;15.472;2023-11-22T06:28:34;18.90;;;18.10;;
3211;SDS011;1618;47.056;15.472;2023-11-22T06:31:04;19.10;;;18.30;;
3211;SDS011;1618;47.056;15.472;2023-11-22T06:33:31;18.40;;;17.60;;
3211;SDS011;1618;47.056;15.472;2023-11-22T06:35:58;17.37;;;16.67;;
3211;SDS011;1618;47.056;15.472;2023-11-22T06:38:26;17.90;;;17.20;;
3211;SDS011;1618;47.056;15.472;2023-11-22T06:40:56;20.07;;;19.27;;
3211;SDS011;1618;47.056;15.472;2023-11-22T06:43:26;22.43;;;21.53;;
3211;SDS011;1618;47.056;15.472;2023-11-22T06:45:55;22.33;;;21.43;;
3211;SDS011;1618;47.056;15.472;2023-11-22T06:48:22;23.00;;;22.00;;
3211;SDS011;1618;47.056;15.472;2023-11-22T06:50:50;22.73;;;21.73;;
3211;SDS011;1618;47.056;15.472;2023-11-22T06:53:20;22.40;;;21.50;;
3211;SDS011;1618;47.056;15.472;2023-11-22T06:55:49;21.77;;;20.87;;
3211;SDS011;1618;47.056;15.472;2023-11-22T06:58:18;23.30;;;22.30;;
3211;SDS011;1618;47.056;15.472;2023-11-22T07:00:45;22.97;;;21.97;;
3211;SDS011;1618;47.056;15.472;2023-11-22T07:03:15;21.57;;;20.67;;
3211;SDS011;1618;47.056;15.472;2023-11-22T07:05:44;23.60;;;22.60;;
3211;SDS011;1618;47.056;15.472;2023-11-22T07:08:12;22.20;;;21.30;;
3211;SDS011;1618;47.056;15.472;2023-11-22T07:10:42;21.60;;;20.70;;
3211;SDS011;1618;47.056;15.472;2023-11-22T07:13:10;21.17;;;20.27;;
3211;SDS011;1618;47.056;15.472;2023-11-22T07:15:39;22.67;;;21.67;;
3211;SDS011;1618;47.056;15.472;2023-11-22T07:18:07;21.80;;;20.90;;
3211;SDS011;1618;47.056;15.472;2023-11-22T07:20:36;21.80;;;20.90;;
3211;SDS011;1618;47.056;15.472;2023-11-22T07:23:05;21.30;;;20.40;;
3211;SDS011;1618;47.056;15.472;2023-11-22T07:25:36;22.10;;;21.20;;
3211;SDS011;1618;47.056;15.472;2023-11-22T07:28:03;21.70;;;20.80;;
3211;SDS011;1618;47.056;15.472;2023-11-22T07:30:32;20.27;;;19.47;;
3211;SDS011;1618;47.056;15.472;2023-11-22T07:33:00;20.67;;;19.77;;
3211;SDS011;1618;47.056;15.472;2023-11-22T07:35:28;21.00;;;20.10;;
3211;SDS011;1618;47.056;15.472;2023-11-22T07:37:55;21.00;;;20.10;;
3211;SDS011;1618;47.056;15.472;2023-11-22T07:40:24;21.67;;;20.77;;
3211;SDS011;1618;47.056;15.472;2023-11-22T07:42:52;19.93;;;19.13;;
3211;SDS011;1618;47.056;15.472;2023-11-22T07:45:21;20.80;;;19.90;;
3211;SDS011;1618;47.056;15.472;2023-11-22T07:47:48;20.13;;;19.33;;
3211;SDS011;1618;47.056;15.472;2023-11-22T07:50:19;19.43;;;18.63;;
3211;SDS011;1618;47.056;15.472;2023-11-22T07:52:50;19.13;;;18.33;;
3211;SDS011;1618;47.056;15.472;2023-11-22T07:55:17;19.43;;;18.63;;
3211;SDS011;1618;47.056;15.472;2023-11-22T07:57:47;19.80;;;19.00;;
3211;SDS011;1618;47.056;15.472;2023-11-22T08:00:16;18.97;;;18.17;;
3211;SDS011;1618;47.056;15.472;2023-11-22T08:02:45;19.70;;;18.90;;
3211;SDS011;1618;47.056;15.472;2023-11-22T08:05:14;18.20;;;17.40;;
3211;SDS011;1618;47.056;15.472;2023-11-22T08:07:55;18.77;;;17.97;;
3211;SDS011;1618;47.056;15.472;2023-11-22T08:10:22;17.37;;;16.67;;
3211;SDS011;1618;47.056;15.472;2023-11-22T08:12:50;17.73;;;17.03;;
3211;SDS011;1618;47.056;15.472;2023-11-22T08:15:18;18.13;;;17.33;;
3211;SDS011;1618;47.056;15.472;2023-11-22T08:17:47;18.67;;;17.87;;
3211;SDS011;1618;47.056;15.472;2023-11-22T08:20:17;20.10;;;19.20;;
3211;SDS011;1618;47.056;15.472;2023-11-22T08:22:47;20.57;;;19.67;;
3211;SDS011;1618;47.056;15.472;2023-11-22T08:25:17;20.60;;;19.70;;
3211;SDS011;1618;47.056;15.472;2023-11-22T08:27:44;20.90;;;20.00;;
3211;SDS011;1618;47.056;15.472;2023-11-22T08:30:13;20.10;;;19.20;;
3211;SDS011;1618;47.056;15.472;2023-11-22T08:32:42;21.70;;;20.70;;
3211;SDS011;1618;47.056;15.472;2023-11-22T08:35:12;20.20;;;19.30;;
3211;SDS011;1618;47.056;15.472;2023-11-22T08:37:40;20.40;;;19.50;;
3211;SDS011;1618;47.056;15.472;2023-11-22T08:40:09;21.07;;;20.17;;
3211;SDS011;1618;47.056;15.472;2023-11-22T08:42:43;19.30;;;18.50;;
3211;SDS011;1618;47.056;15.472;2023-11-22T08:45:13;19.37;;;18.57;;
3211;SDS011;1618;47.056;15.472;2023-11-22T08:47:40;19.83;;;19.00;;
3211;SDS011;1618;47.056;15.472;2023-11-22T08:50:08;22.47;;;21.47;;
3211;SDS011;1618;47.056;15.472;2023-11-22T08:52:37;23.57;;;22.57;;
3211;SDS011;1618;47.056;15.472;2023-11-22T08:55:05;25.37;;;24.27;;
3211;SDS011;1618;47.056;15.472;2023-11-22T08:57:35;25.27;;;24.07;;
3211;SDS011;1618;47.056;15.472;2023-11-22T09:00:04;24.13;;;23.03;;
3211;SDS011;1618;47.056;15.472;2023-11-22T09:02:34;24.53;;;23.43;;
3211;SDS011;1618;47.056;15.472;2023-11-22T09:05:02;25.20;;;24.00;;
3211;SDS011;1618;47.056;15.472;2023-11-22T09:07:33;25.20;;;24.00;;
3211;SDS011;1618;47.056;15.472;2023-11-22T09:10:02;23.73;;;22.63;;
3211;SDS011;1618;47.056;15.472;2023-11-22T09:12:35;26.10;;;24.90;;
3211;SDS011;1618;47.056;15.472;2023-11-22T09:15:07;27.90;;;26.50;;
3211;SDS011;1618;47.056;15.472;2023-11-22T09:17:36;29.03;;;27.53;;
3211;SDS011;1618;47.056;15.472;2023-11-22T09:20:09;27.90;;;26.50;;
3211;SDS011;1618;47.056;15.472;2023-11-22T09:22:41;26.20;;;24.90;;
3211;SDS011;1618;47.056;15.472;2023-11-22T09:25:12;30.90;;;29.10;;
3211;SDS011;1618;47.056;15.472;2023-11-22T09:27:41;33.20;;;31.10;;
3211;SDS011;1618;47.056;15.472;2023-11-22T09:30:13;35.50;;;33.20;;
3211;SDS011;1618;47.056;15.472;2023-11-22T09:32:59;37.50;;;34.90;;
3211;SDS011;1618;47.056;15.472;2023-11-22T09:35:27;37.67;;;35.00;;
3211;SDS011;1618;47.056;15.472;2023-11-22T09:37:57;39.30;;;36.50;;
3211;SDS011;1618;47.056;15.472;2023-11-22T09:40:24;39.17;;;36.27;;
3211;SDS011;1618;47.056;15.472;2023-11-22T09:42:55;37.50;;;34.80;;
3211;SDS011;1618;47.056;15.472;2023-11-22T09:45:25;38.70;;;35.80;;
3211;SDS011;1618;47.056;15.472;2023-11-22T09:47:53;37.70;;;34.80;;
3211;SDS011;1618;47.056;15.472;2023-11-22T09:50:23;38.13;;;35.23;;
3211;SDS011;1618;47.056;15.472;2023-11-22T09:52:55;37.47;;;34.57;;
3211;SDS011;1618;47.056;15.472;2023-11-22T09:55:27;37.77;;;34.87;;
3211;SDS011;1618;47.056;15.472;2023-11-22T09:57:56;38.33;;;35.43;;
3211;SDS011;1618;47.056;15.472;2023-11-22T10:00:27;37.30;;;34.30;;
3211;SDS011;1618;47.056;15.472;2023-11-22T10:02:55;37.00;;;34.10;;
3211;SDS011;1618;47.056;15.472;2023-11-22T10:05:23;37.00;;;34.10;;
3211;SDS011;1618;47.056;15.472;2023-11-22T10:07:54;37.67;;;34.73;;
3211;SDS011;1618;47.056;15.472;2023-11-22T10:10:21;36.93;;;34.13;;
3211;SDS011;1618;47.056;15.472;2023-11-22T10:12:53;36.90;;;34.00;;
3211;SDS011;1618;47.056;15.472;2023-11-22T10:15:21;38.10;;;35.20;;
3211;SDS011;1618;47.056;15.472;2023-11-22T10:17:55;36.80;;;33.70;;
3211;SDS011;1618;47.056;15.472;2023-11-22T10:20:23;36.10;;;33.00;;
3211;SDS011;1618;47.056;15.472;2023-11-22T10:22:52;34.37;;;31.37;;
3211;SDS011;1618;47.056;15.472;2023-11-22T10:25:19;35.27;;;32.20;;
3211;SDS011;1618;47.056;15.472;2023-11-22T10:27:48;35.30;;;32.20;;
3211;SDS011;1618;47.056;15.472;2023-11-22T10:30:16;35.27;;;32.17;;
3211;SDS011;1618;47.056;15.472;2023-11-22T10:32:44;34.77;;;31.67;;
3211;SDS011;1618;47.056;15.472;2023-11-22T10:35:13;34.00;;;30.90;;
3211;SDS011;1618;47.056;15.472;2023-11-22T10:37:46;35.27;;;32.07;;
3211;SDS011;1618;47.056;15.472;2023-11-22T10:40:14;34.30;;;31.10;;
3211;SDS011;1618;47.056;15.472;2023-11-22T10:42:42;34.87;;;31.67;;
3211;SDS011;1618;47.056;15.472;2023-11-22T10:45:11;33.70;;;30.60;;
3211;SDS011;1618;47.056;15.472;2023-11-22T10:47:40;34.47;;;31.37;;
3211;SDS011;1618;47.056;15.472;2023-11-22T10:50:09;35.00;;;31.80;;
3211;SDS011;1618;47.056;15.472;2023-11-22T10:52:40;35.03;;;31.83;;
3211;SDS011;1618;47.056;15.472;2023-11-22T10:55:08;34.20;;;31.10;;
3211;SDS011;1618;47.056;15.472;2023-11-22T10:57:39;34.17;;;30.97;;
3211;SDS011;1618;47.056;15.472;2023-11-22T11:00:07;35.00;;;31.70;;
3211;SDS011;1618;47.056;15.472;2023-11-22T11:02:40;34.80;;;31.70;;
3211;SDS011;1618;47.056;15.472;2023-11-22T11:05:10;34.83;;;31.63;;
3211;SDS011;1618;47.056;15.472;2023-11-22T11:07:45;37.30;;;34.20;;
3211;SDS011;1618;47.056;15.472;2023-11-22T11:10:13;35.13;;;31.93;;
3211;SDS011;1618;47.056;15.472;2023-11-22T11:12:42;34.27;;;31.07;;
3211;SDS011;1618;47.056;15.472;2023-11-22T11:15:10;35.70;;;32.70;;
3211;SDS011;1618;47.056;15.472;2023-11-22T11:17:39;35.53;;;32.43;;
3211;SDS011;1618;47.056;15.472;2023-11-22T11:20:06;36.77;;;33.67;;
3211;SDS011;1618;47.056;15.472;2023-11-22T11:22:36;36.97;;;33.77;;
3211;SDS011;1618;47.056;15.472;2023-11-22T11:25:05;36.47;;;33.27;;
3211;SDS011;1618;47.056;15.472;2023-11-22T11:27:33;37.63;;;34.33;;
3211;SDS011;1618;47.056;15.472;2023-11-22T11:32:46;35.87;;;32.57;;
3211;SDS011;1618;47.056;15.472;2023-11-22T11:35:18;36.77;;;33.47;;
3211;SDS011;1618;47.056;15.472;2023-11-22T11:37:51;34.20;;;30.93;;
3211;SDS011;1618;47.056;15.472;2023-11-22T11:40:28;37.80;;;34.60;;
3211;SDS011;1618;47.056;15.472;2023-11-22T11:43:04;34.77;;;31.57;;
3211;SDS011;1618;47.056;15.472;2023-11-22T11:45:34;34.73;;;31.53;;
3211;SDS011;1618;47.056;15.472;2023-11-22T11:48:02;34.77;;;31.57;;
3211;SDS011;1618;47.056;15.472;2023-11-22T11:50:30;37.70;;;34.40;;
3211;SDS011;1618;47.056;15.472;2023-11-22T11:52:57;35.40;;;32.20;;
3211;SDS011;1618;47.056;15.472;2023-11-22T11:55:26;35.47;;;32.17;;
3211;SDS011;1618;47.056;15.472;2023-11-22T11:57:56;35.10;;;31.90;;
3211;SDS011;1618;47.056;15.472;2023-11-22T12:00:23;35.33;;;32.03;;
3211;SDS011;1618;47.056;15.472;2023-11-22T12:02:51;35.43;;;32.23;;
3211;SDS011;1618;47.056;15.472;2023-11-22T12:05:19;35.73;;;32.43;;
3211;SDS011;1618;47.056;15.472;2023-11-22T12:07:47;34.70;;;31.50;;
3211;SDS011;1618;47.056;15.472;2023-11-22T12:10:16;35.30;;;32.10;;
3211;SDS011;1618;47.056;15.472;2023-11-22T12:12:45;36.83;;;33.83;;
3211;SDS011;1618;47.056;15.472;2023-11-22T12:15:13;35.10;;;31.90;;
3211;SDS011;1618;47.056;15.472;2023-11-22T12:17:41;35.97;;;32.67;;
3211;SDS011;1618;47.056;15.472;2023-11-22T12:20:12;36.80;;;33.50;;
3211;SDS011;1618;47.056;15.472;2023-11-22T12:22:41;36.43;;;33.13;;
3211;SDS011;1618;47.056;15.472;2023-11-22T12:25:10;35.30;;;32.10;;
3211;SDS011;1618;47.056;15.472;2023-11-22T12:27:38;35.00;;;31.80;;
3211;SDS011;1618;47.056;15.472;2023-11-22T12:30:07;34.23;;;31.03;;
3211;SDS011;1618;47.056;15.472;2023-11-22T12:32:39;34.57;;;31.37;;
3211;SDS011;1618;47.056;15.472;2023-11-22T12:35:08;35.27;;;31.97;;
3211;SDS011;1618;47.056;15.472;2023-11-22T12:37:38;35.00;;;31.70;;
3211;SDS011;1618;47.056;15.472;2023-11-22T12:40:12;34.80;;;31.50;;
3211;SDS011;1618;47.056;15.472;2023-11-22T12:42:49;36.73;;;33.53;;
3211;SDS011;1618;47.056;15.472;2023-11-22T12:45:19;36.93;;;33.63;;
3211;SDS011;1618;47.056;15.472;2023-11-22T12:47:51;34.40;;;31.10;;
3211;SDS011;1618;47.056;15.472;2023-11-22T12:50:31;34.57;;;31.27;;
3211;SDS011;1618;47.056;15.472;2023-11-22T12:53:07;34.10;;;30.80;;
3211;SDS011;1618;47.056;15.472;2023-11-22T12:55:37;34.10;;;30.80;;
3211;SDS011;1618;47.056;15.472;2023-11-22T12:58:07;34.50;;;31.20;;
3211;SDS011;1618;47.056;15.472;2023-11-22T13:00:35;35.40;;;32.00;;
3211;SDS011;1618;47.056;15.472;2023-11-22T13:03:07;35.07;;;31.77;;
3211;SDS011;1618;47.056;15.472;2023-11-22T13:05:36;35.30;;;31.90;;
3211;SDS011;1618;47.056;15.472;2023-11-22T13:08:04;35.27;;;31.77;;
3211;SDS011;1618;47.056;15.472;2023-11-22T13:10:31;35.73;;;32.23;;
3211;SDS011;1618;47.056;15.472;2023-11-22T13:13:05;35.13;;;31.83;;
3211;SDS011;1618;47.056;15.472;2023-11-22T13:15:35;35.93;;;32.53;;
3211;SDS011;1618;47.056;15.472;2023-11-22T13:18:02;35.80;;;32.40;;
3211;SDS011;1618;47.056;15.472;2023-11-22T13:20:35;35.90;;;32.60;;
3211;SDS011;1618;47.056;15.472;2023-11-22T13:23:04;36.83;;;33.53;;
3211;SDS011;1618;47.056;15.472;2023-11-22T13:25:33;36.13;;;32.83;;
3211;SDS011;1618;47.056;15.472;2023-11-22T13:28:01;36.80;;;33.50;;
3211;SDS011;1618;47.056;15.472;2023-11-22T13:30:31;36.97;;;33.67;;
3211;SDS011;1618;47.056;15.472;2023-11-22T13:32:59;36.80;;;33.50;;
3211;SDS011;1618;47.056;15.472;2023-11-22T13:35:28;36.33;;;33.13;;
3211;SDS011;1618;47.056;15.472;2023-11-22T13:37:58;36.40;;;33.30;;
3211;SDS011;1618;47.056;15.472;2023-11-22T13:40:28;36.73;;;33.63;;
3211;SDS011;1618;47.056;15.472;2023-11-22T13:42:56;36.23;;;33.03;;
3211;SDS011;1618;47.056;15.472;2023-11-22T13:45:24;36.07;;;32.90;;
3211;SDS011;1618;47.056;15.472;2023-11-22T13:47:51;37.23;;;34.23;;
3211;SDS011;1618;47.056;15.472;2023-11-22T13:50:23;37.00;;;33.90;;
3211;SDS011;1618;47.056;15.472;2023-11-22T13:52:53;38.00;;;34.80;;
3211;SDS011;1618;47.056;15.472;2023-11-22T13:55:29;37.50;;;34.30;;
3211;SDS011;1618;47.056;15.472;2023-11-22T13:57:57;35.40;;;32.20;;
3211;SDS011;1618;47.056;15.472;2023-11-22T14:00:26;35.40;;;32.30;;
3211;SDS011;1618;47.056;15.472;2023-11-22T14:02:58;36.40;;;33.40;;
3211;SDS011;1618;47.056;15.472;2023-11-22T14:05:32;35.77;;;32.77;;
3211;SDS011;1618;47.056;15.472;2023-11-22T14:08:03;35.63;;;32.63;;
3211;SDS011;1618;47.056;15.472;2023-11-22T14:10:32;34.70;;;31.80;;
3211;SDS011;1618;47.056;15.472;2023-11-22T14:13:00;34.90;;;32.10;;
3211;SDS011;1618;47.056;15.472;2023-11-22T14:15:29;34.90;;;32.00;;
3211;SDS011;1618;47.056;15.472;2023-11-22T14:17:58;35.33;;;32.43;;
3211;SDS011;1618;47.056;15.472;2023-11-22T14:20:26;33.97;;;31.17;;
3211;SDS011;1618;47.056;15.472;2023-11-22T14:22:55;33.30;;;30.50;;
3211;SDS011;1618;47.056;15.472;2023-11-22T14:25:24;34.90;;;32.00;;
3211;SDS011;1618;47.056;15.472;2023-11-22T14:27:53;35.30;;;32.40;;
3211;SDS011;1618;47.056;15.472;2023-11-22T14:30:23;35.60;;;32.60;;
3211;SDS011;1618;47.056;15.472;2023-11-22T14:32:54;32.90;;;30.10;;
3211;SDS011;1618;47.056;15.472;2023-11-22T14:35:25;32.97;;;30.17;;
3211;SDS011;1618;47.056;15.472;2023-11-22T14:37:53;32.60;;;29.80;;
3211;SDS011;1618;47.056;15.472;2023-11-22T14:40:24;34.40;;;31.70;;
3211;SDS011;1618;47.056;15.472;2023-11-22T14:42:54;34.50;;;31.70;;
3211;SDS011;1618;47.056;15.472;2023-11-22T14:45:22;34.47;;;31.60;;
3211;SDS011;1618;47.056;15.472;2023-11-22T14:47:52;35.73;;;32.73;;